Franklin, Illinois
Current Conditions -  °F | °C
As of 2:55 PM on Friday 31 Oct 2014 (Local Time) from KIJX Reporting Station
Broken Clouds Broken Clouds  
Wind Chill: 39°   Ceiling: 5500
Heat Index: 47°   Visibility: 10mi
Dew Point: 22°   Wind: 25mph
Humidity: 37%   Direction: 340°NNW
Pressure: 30.29"   Gusts: 31mph
Location:  39.62°N, 90.04°W
Report Text: KIJX 311955Z AUTO 34022G27KT 10SM BKN055 09/M06 A3029 RMK AO2 T00851056
Loading
Personal Weather Stations






























Interactive Weather Map
Tropical Storm Tracking
New forecast layout! Learn more

10-Day Weather Forecast

Advertisements
Track Severe Weather on mobile